createdAt,value
2019-03-30T00:01:25.528Z,78.20
2019-03-30T00:03:55.375Z,78.10
2019-03-30T00:06:25.558Z,78.10
2019-03-30T00:08:55.736Z,78.20
2019-03-30T00:11:26.527Z,78.30
2019-03-30T00:13:56.353Z,78.30
2019-03-30T00:16:26.523Z,78.50
2019-03-30T00:18:56.512Z,78.80
2019-03-30T00:21:26.409Z,79.00
2019-03-30T00:23:57.258Z,79.30
2019-03-30T00:26:27.079Z,79.50
2019-03-30T00:28:57.475Z,79.60
2019-03-30T00:31:27.646Z,79.60
2019-03-30T00:33:57.577Z,80.30
2019-03-30T00:36:27.750Z,80.00
2019-03-30T00:38:57.576Z,80.20
2019-03-30T00:41:27.804Z,80.40
2019-03-30T00:43:57.667Z,80.40
2019-03-30T00:46:27.777Z,80.60
2019-03-30T00:48:57.893Z,80.70
2019-03-30T00:51:27.807Z,80.80
2019-03-30T00:53:58.629Z,80.90
2019-03-30T00:56:28.732Z,80.90
2019-03-30T00:58:58.844Z,80.90
2019-03-30T01:01:28.935Z,80.90
2019-03-30T01:03:58.828Z,81.10
2019-03-30T01:06:28.646Z,80.90
2019-03-30T01:08:58.459Z,81.10
2019-03-30T01:11:28.407Z,81.20
2019-03-30T01:13:58.572Z,81.20
2019-03-30T01:16:28.463Z,81.40
2019-03-30T01:18:58.407Z,81.40
2019-03-30T01:21:28.528Z,81.40
2019-03-30T01:23:58.390Z,81.60
2019-03-30T01:26:28.251Z,81.70
2019-03-30T01:29:00.447Z,81.70
2019-03-30T01:31:33.341Z,81.80
2019-03-30T01:34:03.764Z,81.90
2019-03-30T01:36:33.682Z,82.10
2019-03-30T01:39:05.392Z,82.30
2019-03-30T01:41:35.491Z,82.50
2019-03-30T01:44:05.434Z,82.60
2019-03-30T01:46:35.307Z,82.90
2019-03-30T01:49:05.450Z,83.00
2019-03-30T01:51:38.152Z,83.10
2019-03-30T01:54:08.156Z,83.30
2019-03-30T01:56:38.386Z,83.70
2019-03-30T01:59:08.461Z,83.60
2019-03-30T02:01:38.363Z,83.70
2019-03-30T02:04:08.227Z,83.80
2019-03-30T02:06:38.161Z,83.90
2019-03-30T02:09:08.289Z,84.00
2019-03-30T02:11:39.635Z,84.10
2019-03-30T02:14:09.501Z,84.50
2019-03-30T02:16:39.367Z,84.70
2019-03-30T02:19:09.445Z,84.50
2019-03-30T02:21:39.284Z,84.60
2019-03-30T02:24:09.084Z,84.70
2019-03-30T02:26:38.936Z,84.90
2019-03-30T02:29:08.752Z,85.20
2019-03-30T02:31:38.598Z,85.20
2019-03-30T02:34:08.429Z,85.30
2019-03-30T02:36:38.917Z,85.40
2019-03-30T02:39:08.836Z,85.50
2019-03-30T02:41:38.992Z,85.70
2019-03-30T02:44:09.062Z,85.90
2019-03-30T02:46:38.928Z,86.00
2019-03-30T02:49:08.734Z,86.10
2019-03-30T02:51:38.539Z,86.30
2019-03-30T02:54:08.370Z,86.30
2019-03-30T02:56:46.095Z,86.30
2019-03-30T02:59:20.761Z,86.50
2019-03-30T03:01:50.657Z,86.50
2019-03-30T03:04:22.988Z,86.90
2019-03-30T03:06:53.080Z,87.10
2019-03-30T03:09:23.708Z,88.00
2019-03-30T03:11:53.553Z,87.50
2019-03-30T03:14:23.524Z,87.70
2019-03-30T03:16:54.662Z,87.90
2019-03-30T03:19:26.280Z,88.00
2019-03-30T03:21:57.771Z,88.30
2019-03-30T03:24:30.564Z,88.30
2019-03-30T03:27:00.732Z,88.60
2019-03-30T03:29:34.396Z,88.70
2019-03-30T03:32:07.123Z,88.60
2019-03-30T03:34:41.036Z,88.60
2019-03-30T03:37:10.845Z,88.70
2019-03-30T03:39:40.745Z,88.50
2019-03-30T03:42:11.856Z,88.50
2019-03-30T03:44:41.679Z,88.50
2019-03-30T03:47:14.269Z,88.40
2019-03-30T03:49:47.224Z,88.30
2019-03-30T03:52:17.764Z,88.30
2019-03-30T03:54:49.010Z,88.40
2019-03-30T03:57:24.711Z,88.40
2019-03-30T03:59:56.475Z,88.50
2019-03-30T04:02:28.283Z,88.50
2019-03-30T04:05:01.273Z,88.40
2019-03-30T04:07:34.216Z,88.40
2019-03-30T04:10:05.653Z,88.40
2019-03-30T04:12:37.132Z,88.20
2019-03-30T04:15:09.045Z,88.30
2019-03-30T04:17:39.143Z,88.40
2019-03-30T04:20:08.956Z,88.60
2019-03-30T04:22:38.841Z,88.70
2019-03-30T04:25:08.645Z,89.00
2019-03-30T04:27:38.510Z,89.00
2019-03-30T04:30:08.679Z,89.20
2019-03-30T04:32:38.548Z,89.50
2019-03-30T04:35:08.435Z,89.50
2019-03-30T04:37:38.281Z,89.50
2019-03-30T04:40:08.480Z,89.60
2019-03-30T04:42:38.310Z,89.70
2019-03-30T04:45:08.522Z,89.90
2019-03-30T04:47:38.419Z,89.70
2019-03-30T04:50:08.365Z,89.60
2019-03-30T04:52:38.260Z,89.50
2019-03-30T04:55:08.511Z,89.80
2019-03-30T04:57:38.382Z,89.40
2019-03-30T05:00:08.838Z,89.40
2019-03-30T05:02:38.748Z,89.70
2019-03-30T05:05:08.913Z,89.90
2019-03-30T05:07:38.899Z,90.00
2019-03-30T05:10:09.095Z,90.00
2019-03-30T05:12:39.236Z,90.10
2019-03-30T05:15:09.519Z,90.10
2019-03-30T05:17:47.618Z,90.10
2019-03-30T05:20:12.000Z,90.10
2019-03-30T05:22:42.215Z,90.10
2019-03-30T05:25:14.795Z,90.00
2019-03-30T05:27:47.713Z,90.00
2019-03-30T05:30:21.291Z,89.90
2019-03-30T05:33:04.616Z,90.00
2019-03-30T05:35:25.816Z,90.00
2019-03-30T05:38:01.342Z,90.00
2019-03-30T05:40:30.937Z,90.00
2019-03-30T05:43:00.826Z,90.10
2019-03-30T05:45:36.036Z,90.00
2019-03-30T05:48:06.215Z,90.00
2019-03-30T05:50:36.039Z,90.00
2019-03-30T05:53:06.959Z,90.00
2019-03-30T05:55:36.868Z,89.80
2019-03-30T05:58:06.950Z,89.60
2019-03-30T06:00:36.747Z,89.30
2019-03-30T06:03:07.056Z,89.40
2019-03-30T06:05:36.903Z,89.10
2019-03-30T06:08:08.056Z,88.80
2019-03-30T06:10:38.992Z,88.60
2019-03-30T06:13:09.115Z,88.10
2019-03-30T06:15:39.000Z,87.90
2019-03-30T06:18:11.284Z,87.50
2019-03-30T06:20:40.680Z,87.30
2019-03-30T06:23:10.703Z,87.40
2019-03-30T06:25:40.533Z,87.20
2019-03-30T06:28:10.602Z,87.00
2019-03-30T06:30:40.746Z,86.60
2019-03-30T06:33:10.622Z,86.10
2019-03-30T06:35:40.500Z,85.70
2019-03-30T06:38:10.410Z,85.00
2019-03-30T06:40:40.341Z,84.60
2019-03-30T06:43:10.412Z,84.20
2019-03-30T06:45:40.296Z,83.60
2019-03-30T06:48:10.865Z,83.20
2019-03-30T06:50:40.979Z,82.80
2019-03-30T06:53:11.080Z,82.40
2019-03-30T06:55:41.245Z,82.20
2019-03-30T06:58:11.092Z,81.50
2019-03-30T07:00:40.976Z,80.90
2019-03-30T07:03:10.799Z,80.40
2019-03-30T07:05:42.567Z,80.00
2019-03-30T07:08:18.998Z,79.40
2019-03-30T07:10:49.222Z,79.00
2019-03-30T07:13:21.718Z,78.50
2019-03-30T07:15:51.596Z,77.80
2019-03-30T07:18:21.515Z,77.30
2019-03-30T07:20:51.595Z,76.70
2019-03-30T07:23:21.439Z,76.20
2019-03-30T07:25:51.246Z,75.40
2019-03-30T07:28:21.208Z,74.80
2019-03-30T07:30:51.311Z,74.30
2019-03-30T07:33:21.407Z,73.50
2019-03-30T07:35:51.539Z,72.90
2019-03-30T07:38:21.727Z,72.50
2019-03-30T07:40:51.626Z,71.90
2019-03-30T07:43:21.775Z,71.50
2019-03-30T07:45:51.777Z,71.20
2019-03-30T07:48:21.868Z,71.20
2019-03-30T07:50:51.908Z,70.60
2019-03-30T07:53:26.829Z,69.70
2019-03-30T07:56:07.679Z,69.40
2019-03-30T07:58:28.116Z,69.00
2019-03-30T08:00:58.350Z,68.50
2019-03-30T08:03:28.573Z,67.60
2019-03-30T08:05:58.670Z,67.20
2019-03-30T08:08:28.800Z,66.50
2019-03-30T08:10:58.656Z,66.20
2019-03-30T08:13:28.848Z,65.60
2019-03-30T08:15:58.960Z,65.60
2019-03-30T08:18:28.808Z,64.50
2019-03-30T08:21:00.128Z,63.70
2019-03-30T08:23:40.317Z,63.10
2019-03-30T08:26:01.537Z,62.00
2019-03-30T08:28:31.366Z,61.60
2019-03-30T08:31:01.503Z,61.50
2019-03-30T08:33:31.318Z,60.00
2019-03-30T08:36:01.262Z,60.20
2019-03-30T08:38:31.467Z,59.70
2019-03-30T08:41:01.571Z,59.20
2019-03-30T08:43:31.671Z,58.70
2019-03-30T08:46:01.793Z,59.00
2019-03-30T08:48:31.937Z,58.40
2019-03-30T08:51:02.215Z,57.40
2019-03-30T08:53:32.127Z,57.10
2019-03-30T08:56:02.220Z,56.90
2019-03-30T08:58:32.325Z,56.50
2019-03-30T09:01:02.479Z,56.50
2019-03-30T09:03:33.976Z,56.00
2019-03-30T09:06:04.035Z,56.20
2019-03-30T09:08:33.907Z,55.10
2019-03-30T09:11:04.063Z,54.60
2019-03-30T09:13:33.892Z,54.30
2019-03-30T09:16:04.180Z,53.90
2019-03-30T09:18:34.336Z,54.50
2019-03-30T09:21:04.402Z,53.90
2019-03-30T09:23:34.567Z,53.70
2019-03-30T09:26:04.661Z,53.50
2019-03-30T09:28:35.330Z,52.30
2019-03-30T09:31:05.607Z,53.20
2019-03-30T09:33:35.708Z,52.10
2019-03-30T09:36:05.526Z,51.30
2019-03-30T09:38:35.371Z,50.10
2019-03-30T09:41:05.241Z,49.60
2019-03-30T09:43:37.564Z,49.10
2019-03-30T09:46:06.688Z,49.40
2019-03-30T09:48:36.846Z,49.90
2019-03-30T09:51:07.932Z,49.60
2019-03-30T09:53:37.844Z,48.50
2019-03-30T09:56:07.928Z,48.10
2019-03-30T09:58:38.562Z,48.10
2019-03-30T10:01:08.666Z,48.40
2019-03-30T10:03:38.806Z,48.00
2019-03-30T10:06:08.691Z,48.20
2019-03-30T10:08:38.540Z,48.30
2019-03-30T10:11:08.656Z,48.20
2019-03-30T10:13:38.584Z,47.50
2019-03-30T10:16:08.415Z,47.60
2019-03-30T10:18:38.648Z,46.90
2019-03-30T10:21:08.717Z,46.60
2019-03-30T10:23:38.568Z,46.40
2019-03-30T10:26:08.387Z,43.20
2019-03-30T10:28:38.195Z,42.00
2019-03-30T10:31:08.302Z,41.20
2019-03-30T10:33:38.450Z,40.90
2019-03-30T10:36:08.264Z,40.90
2019-03-30T10:38:38.469Z,40.40
2019-03-30T10:41:08.368Z,40.80
2019-03-30T10:43:38.211Z,40.10
2019-03-30T10:46:08.074Z,40.10
2019-03-30T10:48:37.905Z,39.70
2019-03-30T10:51:07.768Z,39.90
2019-03-30T10:53:37.947Z,40.60
2019-03-30T10:56:08.414Z,40.00
2019-03-30T10:58:38.231Z,39.60
2019-03-30T11:01:08.075Z,39.10
2019-03-30T11:03:37.913Z,39.10
2019-03-30T11:06:07.759Z,38.40
2019-03-30T11:08:37.879Z,37.50
2019-03-30T11:11:07.678Z,38.30
2019-03-30T11:13:37.486Z,37.10
2019-03-30T11:16:07.417Z,37.40
2019-03-30T11:18:37.221Z,37.00
2019-03-30T11:21:07.449Z,37.50
2019-03-30T11:23:37.572Z,37.60
2019-03-30T11:26:07.380Z,38.10
2019-03-30T11:28:37.839Z,38.10
2019-03-30T11:31:08.357Z,38.50
2019-03-30T11:33:38.484Z,38.20
2019-03-30T11:36:08.303Z,38.10
2019-03-30T11:38:38.404Z,38.20
2019-03-30T11:41:08.211Z,38.00
2019-03-30T11:43:38.032Z,38.40
2019-03-30T11:46:08.227Z,37.90
2019-03-30T11:48:38.044Z,38.00
2019-03-30T11:51:07.875Z,37.80
2019-03-30T11:53:37.689Z,37.70
2019-03-30T11:56:07.526Z,37.80
2019-03-30T11:58:37.625Z,37.80
2019-03-30T12:01:07.554Z,37.50
2019-03-30T12:03:37.436Z,37.20
2019-03-30T12:06:07.477Z,37.30
2019-03-30T12:08:37.657Z,37.30
2019-03-30T12:11:07.799Z,37.20
2019-03-30T12:13:37.635Z,36.80
2019-03-30T12:16:07.695Z,36.80
2019-03-30T12:18:37.860Z,36.60
2019-03-30T12:21:08.051Z,36.90
2019-03-30T12:23:37.872Z,36.40
2019-03-30T12:26:07.665Z,36.40
2019-03-30T12:28:37.531Z,36.40
2019-03-30T12:31:07.612Z,36.60
2019-03-30T12:33:37.747Z,36.90
2019-03-30T12:36:07.564Z,36.70
2019-03-30T12:38:37.630Z,36.40
2019-03-30T12:41:07.714Z,36.40
2019-03-30T12:43:39.156Z,36.60
2019-03-30T12:46:09.959Z,36.50
2019-03-30T12:48:39.812Z,36.60
2019-03-30T12:51:09.691Z,36.10
2019-03-30T12:53:49.599Z,35.70
2019-03-30T12:56:11.090Z,35.60
2019-03-30T12:58:40.999Z,35.90
2019-03-30T13:01:10.783Z,35.70
2019-03-30T13:03:40.740Z,36.20
2019-03-30T13:06:10.610Z,35.30
2019-03-30T13:08:40.463Z,35.70
2019-03-30T13:11:10.371Z,35.30
2019-03-30T13:13:40.224Z,35.50
2019-03-30T13:16:10.019Z,35.90
2019-03-30T13:18:40.197Z,35.30
2019-03-30T13:21:10.963Z,34.90
2019-03-30T13:23:41.027Z,35.10
2019-03-30T13:26:11.166Z,35.30
2019-03-30T13:28:40.990Z,35.70
2019-03-30T13:31:11.383Z,36.40
2019-03-30T13:33:41.752Z,35.10
2019-03-30T13:36:12.447Z,35.10
2019-03-30T13:38:42.460Z,35.60
2019-03-30T13:41:14.285Z,35.70
2019-03-30T13:43:44.394Z,34.70
2019-03-30T13:46:14.218Z,34.80
2019-03-30T13:48:44.305Z,34.60
2019-03-30T13:51:14.110Z,34.50
2019-03-30T13:53:45.247Z,34.60
2019-03-30T13:56:17.335Z,35.20
2019-03-30T13:58:46.597Z,34.70
2019-03-30T14:01:16.672Z,35.20
2019-03-30T14:03:46.812Z,35.20
2019-03-30T14:06:16.648Z,34.50
2019-03-30T14:08:46.444Z,35.00
2019-03-30T14:11:16.592Z,35.20
2019-03-30T14:13:46.695Z,35.10
2019-03-30T14:16:16.521Z,34.50
2019-03-30T14:18:46.616Z,35.20
2019-03-30T14:21:16.439Z,34.80
2019-03-30T14:23:46.367Z,35.00
2019-03-30T14:26:30.217Z,35.30
2019-03-30T14:28:48.128Z,35.10
2019-03-30T14:31:18.358Z,35.10
2019-03-30T14:33:48.227Z,35.00
2019-03-30T14:36:18.268Z,35.00
2019-03-30T14:38:48.096Z,35.20
2019-03-30T14:41:17.906Z,34.80
2019-03-30T14:43:48.038Z,34.90
2019-03-30T14:46:18.355Z,35.30
2019-03-30T14:48:48.143Z,35.30
2019-03-30T14:51:17.946Z,35.10
2019-03-30T14:53:47.880Z,35.50
2019-03-30T14:56:17.927Z,35.80
2019-03-30T14:58:47.767Z,35.80
2019-03-30T15:01:17.683Z,36.30
2019-03-30T15:03:47.484Z,36.40
2019-03-30T15:06:17.927Z,35.50
2019-03-30T15:08:47.786Z,34.90
2019-03-30T15:11:17.578Z,34.50
2019-03-30T15:13:47.382Z,34.90
2019-03-30T15:16:17.212Z,34.90
2019-03-30T15:18:47.019Z,35.10
2019-03-30T15:21:16.827Z,36.10
2019-03-30T15:23:46.663Z,36.20
2019-03-30T15:26:16.461Z,36.70
2019-03-30T15:28:46.267Z,37.20
2019-03-30T15:31:16.127Z,37.30
2019-03-30T15:33:45.947Z,37.20
2019-03-30T15:36:16.023Z,37.40
2019-03-30T15:38:45.895Z,37.20
2019-03-30T15:41:16.012Z,36.70
2019-03-30T15:43:45.832Z,36.50
2019-03-30T15:46:15.759Z,36.90
2019-03-30T15:48:45.591Z,35.80
2019-03-30T15:51:15.398Z,35.20
2019-03-30T15:53:45.521Z,34.80
2019-03-30T15:56:15.321Z,34.90
2019-03-30T15:58:45.141Z,35.00
2019-03-30T16:01:14.989Z,33.30
2019-03-30T16:03:45.059Z,33.10
2019-03-30T16:06:14.882Z,32.70
2019-03-30T16:08:45.023Z,32.70
2019-03-30T16:11:15.238Z,32.70
2019-03-30T16:13:45.410Z,31.80
2019-03-30T16:16:15.325Z,31.40
2019-03-30T16:18:45.485Z,32.00
2019-03-30T16:21:15.604Z,32.40
2019-03-30T16:23:45.466Z,32.50
2019-03-30T16:26:15.525Z,33.10
2019-03-30T16:28:45.592Z,32.70
2019-03-30T16:31:15.692Z,32.90
2019-03-30T16:33:46.958Z,32.50
2019-03-30T16:36:17.264Z,32.60
2019-03-30T16:38:47.399Z,33.10
2019-03-30T16:41:17.472Z,33.50
2019-03-30T16:43:47.600Z,33.00
2019-03-30T16:46:17.431Z,32.50
2019-03-30T16:48:47.246Z,32.40
2019-03-30T16:51:17.159Z,32.40
2019-03-30T16:53:47.491Z,32.80
2019-03-30T16:56:17.728Z,32.90
2019-03-30T16:58:47.812Z,33.10
2019-03-30T17:01:18.040Z,33.70
2019-03-30T17:03:47.945Z,33.80
2019-03-30T17:06:17.871Z,33.90
2019-03-30T17:08:47.816Z,33.90
2019-03-30T17:11:17.701Z,33.90
2019-03-30T17:13:47.567Z,34.30
2019-03-30T17:16:17.648Z,34.70
2019-03-30T17:18:47.934Z,35.00
2019-03-30T17:21:20.534Z,35.70
2019-03-30T17:23:50.405Z,35.90
2019-03-30T17:26:20.457Z,36.40
2019-03-30T17:28:50.588Z,36.90
2019-03-30T17:31:20.439Z,37.50
2019-03-30T17:33:50.519Z,38.00
2019-03-30T17:36:20.404Z,38.60
2019-03-30T17:38:50.504Z,38.70
2019-03-30T17:41:20.389Z,39.10
2019-03-30T17:43:50.467Z,39.50
2019-03-30T17:46:20.402Z,39.80
2019-03-30T17:48:50.220Z,40.50
2019-03-30T17:51:20.503Z,40.20
2019-03-30T17:53:50.612Z,40.50
2019-03-30T17:56:20.435Z,40.70
2019-03-30T17:58:50.624Z,40.90
2019-03-30T18:01:20.435Z,41.70
2019-03-30T18:03:50.510Z,42.00
2019-03-30T18:06:20.923Z,42.50
2019-03-30T18:08:50.755Z,42.70
2019-03-30T18:11:20.631Z,43.00
2019-03-30T18:13:50.475Z,43.90
2019-03-30T18:16:22.390Z,43.80
2019-03-30T18:18:52.340Z,44.20
2019-03-30T18:21:22.160Z,44.40
2019-03-30T18:23:52.044Z,44.70
2019-03-30T18:26:22.026Z,44.80
2019-03-30T18:28:51.842Z,45.30
2019-03-30T18:31:29.471Z,45.40
2019-03-30T18:33:59.401Z,45.70
2019-03-30T18:36:31.127Z,45.90
2019-03-30T18:39:09.437Z,46.10
2019-03-30T18:41:33.920Z,46.50
2019-03-30T18:44:04.079Z,46.60
2019-03-30T18:46:34.208Z,46.20
2019-03-30T18:49:04.488Z,46.10
2019-03-30T18:51:34.963Z,46.10
2019-03-30T18:54:05.134Z,46.40
2019-03-30T18:56:35.087Z,46.70
2019-03-30T18:59:04.966Z,47.30
2019-03-30T19:01:36.620Z,48.20
2019-03-30T19:04:06.553Z,48.10
2019-03-30T19:06:36.432Z,48.00
2019-03-30T19:09:08.138Z,48.80
2019-03-30T19:11:38.019Z,49.20
2019-03-30T19:14:07.857Z,49.00
2019-03-30T19:16:38.080Z,49.10
2019-03-30T19:19:08.168Z,49.20
2019-03-30T19:21:38.596Z,49.40
2019-03-30T19:24:08.579Z,49.80
2019-03-30T19:26:38.820Z,49.80
2019-03-30T19:29:09.042Z,50.30
2019-03-30T19:31:39.047Z,50.70
2019-03-30T19:34:08.847Z,50.90
2019-03-30T19:36:38.991Z,50.80
2019-03-30T19:39:09.919Z,50.90
2019-03-30T19:41:39.933Z,51.40
2019-03-30T19:44:10.163Z,51.60
2019-03-30T19:46:40.129Z,51.70
2019-03-30T19:49:09.944Z,52.10
2019-03-30T19:51:40.103Z,52.40
2019-03-30T19:54:09.951Z,52.90
2019-03-30T19:56:39.796Z,53.30
2019-03-30T19:59:11.263Z,53.80
2019-03-30T20:01:41.406Z,54.00
2019-03-30T20:04:11.575Z,54.20
2019-03-30T20:06:41.406Z,54.70
2019-03-30T20:09:11.346Z,55.20
2019-03-30T20:11:41.468Z,55.60
2019-03-30T20:14:12.574Z,55.60
2019-03-30T20:16:42.721Z,56.40
2019-03-30T20:19:13.243Z,56.70
2019-03-30T20:21:43.215Z,56.90
2019-03-30T20:24:14.497Z,57.20
2019-03-30T20:26:44.352Z,57.00
2019-03-30T20:29:24.711Z,57.30
2019-03-30T20:31:45.777Z,57.80
2019-03-30T20:34:15.663Z,58.20
2019-03-30T20:36:45.833Z,58.30
2019-03-30T20:39:15.689Z,58.50
2019-03-30T20:41:45.500Z,58.40
2019-03-30T20:44:15.423Z,58.30
2019-03-30T20:46:45.234Z,58.50
2019-03-30T20:49:15.085Z,58.70
2019-03-30T20:51:45.373Z,58.90
2019-03-30T20:54:15.250Z,59.00
2019-03-30T20:56:45.100Z,59.60
2019-03-30T20:59:14.960Z,59.90
2019-03-30T21:01:45.036Z,60.20
2019-03-30T21:04:14.880Z,60.40
2019-03-30T21:06:44.731Z,60.50
2019-03-30T21:09:14.812Z,60.80
2019-03-30T21:11:44.944Z,61.30
2019-03-30T21:14:14.874Z,61.80
2019-03-30T21:16:44.755Z,62.10
2019-03-30T21:19:14.647Z,62.90
2019-03-30T21:21:44.512Z,62.60
2019-03-30T21:24:14.395Z,62.50
2019-03-30T21:26:44.690Z,62.60
2019-03-30T21:29:14.812Z,62.80
2019-03-30T21:31:44.896Z,63.00
2019-03-30T21:34:15.793Z,63.30
2019-03-30T21:36:45.683Z,63.50
2019-03-30T21:39:18.453Z,63.80
2019-03-30T21:41:48.900Z,63.90
2019-03-30T21:44:22.123Z,64.40
2019-03-30T21:46:53.858Z,64.50
2019-03-30T21:49:30.874Z,64.90
2019-03-30T21:51:59.539Z,65.00
2019-03-30T21:54:34.765Z,65.20
2019-03-30T21:57:04.571Z,65.30
2019-03-30T21:59:34.437Z,65.40
2019-03-30T22:02:12.079Z,65.70
2019-03-30T22:04:41.939Z,65.80
2019-03-30T22:07:12.957Z,65.90
2019-03-30T22:09:42.933Z,66.10
2019-03-30T22:12:13.045Z,66.20
2019-03-30T22:14:43.001Z,66.10
2019-03-30T22:17:12.944Z,66.00
2019-03-30T22:19:43.091Z,67.00
2019-03-30T22:22:12.954Z,67.00
2019-03-30T22:24:42.790Z,67.00
2019-03-30T22:27:13.523Z,67.20
2019-03-30T22:29:43.359Z,67.60
2019-03-30T22:32:13.256Z,68.00
2019-03-30T22:34:43.118Z,68.10
2019-03-30T22:37:14.158Z,68.50
2019-03-30T22:39:43.959Z,68.60
2019-03-30T22:42:13.821Z,68.80
2019-03-30T22:44:43.651Z,69.20
2019-03-30T22:47:13.556Z,69.50
2019-03-30T22:49:44.023Z,69.90
2019-03-30T22:52:13.896Z,70.10
2019-03-30T22:54:43.751Z,69.70
2019-03-30T22:57:13.587Z,70.50
2019-03-30T22:59:44.688Z,71.40
2019-03-30T23:02:14.509Z,72.00
2019-03-30T23:04:44.668Z,72.20
2019-03-30T23:07:14.864Z,72.80
2019-03-30T23:09:44.980Z,73.00
2019-03-30T23:12:14.831Z,73.20
2019-03-30T23:14:44.904Z,73.30
2019-03-30T23:17:14.718Z,73.40
2019-03-30T23:19:45.132Z,73.40
2019-03-30T23:22:14.938Z,73.60
2019-03-30T23:24:44.794Z,73.70
2019-03-30T23:27:14.726Z,73.80
2019-03-30T23:29:44.610Z,73.80
2019-03-30T23:32:14.449Z,73.90
2019-03-30T23:34:44.786Z,74.10
2019-03-30T23:37:14.607Z,74.30
2019-03-30T23:39:46.450Z,74.60
2019-03-30T23:42:16.369Z,74.60
2019-03-30T23:44:46.177Z,74.80
2019-03-30T23:47:16.085Z,75.00
2019-03-30T23:49:46.252Z,75.00
2019-03-30T23:52:16.399Z,75.10
2019-03-30T23:54:46.321Z,75.80
2019-03-30T23:57:16.430Z,75.10
2019-03-30T23:59:46.223Z,75.20
